sensor_id;sensor_type;location;lat;lon;timestamp;temperature;humidity
29353;DHT22;16344;50.364;8.944;2023-06-26T00:02:00;24.30;99.90
29353;DHT22;16344;50.364;8.944;2023-06-26T00:04:26;24.10;99.90
29353;DHT22;16344;50.364;8.944;2023-06-26T00:06:51;24.00;99.90
29353;DHT22;16344;50.364;8.944;2023-06-26T00:09:17;24.00;1.00
29353;DHT22;16344;50.364;8.944;2023-06-26T00:11:42;24.00;1.00
29353;DHT22;16344;50.364;8.944;2023-06-26T00:14:08;23.90;1.00
29353;DHT22;16344;50.364;8.944;2023-06-26T00:16:33;23.90;1.00
29353;DHT22;16344;50.364;8.944;2023-06-26T00:18:59;23.90;1.00
29353;DHT22;16344;50.364;8.944;2023-06-26T00:21:25;23.90;1.00
29353;DHT22;16344;50.364;8.944;2023-06-26T00:23:51;23.70;1.00
29353;DHT22;16344;50.364;8.944;2023-06-26T00:26:17;23.70;1.00
29353;DHT22;16344;50.364;8.944;2023-06-26T00:28:42;23.60;1.00
29353;DHT22;16344;50.364;8.944;2023-06-26T00:31:07;23.50;1.00
29353;DHT22;16344;50.364;8.944;2023-06-26T00:33:33;23.40;1.00
29353;DHT22;16344;50.364;8.944;2023-06-26T00:35:59;23.40;1.00
29353;DHT22;16344;50.364;8.944;2023-06-26T00:38:24;23.60;1.00
29353;DHT22;16344;50.364;8.944;2023-06-26T00:40:50;23.50;1.00
29353;DHT22;16344;50.364;8.944;2023-06-26T00:43:15;23.50;1.00
29353;DHT22;16344;50.364;8.944;2023-06-26T00:45:41;23.50;1.00
29353;DHT22;16344;50.364;8.944;2023-06-26T00:48:06;23.50;1.00
29353;DHT22;16344;50.364;8.944;2023-06-26T00:50:32;23.50;1.00
29353;DHT22;16344;50.364;8.944;2023-06-26T00:52:58;23.60;1.00
29353;DHT22;16344;50.364;8.944;2023-06-26T00:55:26;23.70;1.00
29353;DHT22;16344;50.364;8.944;2023-06-26T00:57:52;23.90;1.00
29353;DHT22;16344;50.364;8.944;2023-06-26T01:00:18;23.90;1.00
29353;DHT22;16344;50.364;8.944;2023-06-26T01:02:44;23.90;1.00
29353;DHT22;16344;50.364;8.944;2023-06-26T01:05:10;23.80;1.00
29353;DHT22;16344;50.364;8.944;2023-06-26T01:07:38;23.90;1.00
29353;DHT22;16344;50.364;8.944;2023-06-26T01:10:05;23.90;1.00
29353;DHT22;16344;50.364;8.944;2023-06-26T01:12:32;23.80;1.00
29353;DHT22;16344;50.364;8.944;2023-06-26T01:14:59;23.80;1.00
29353;DHT22;16344;50.364;8.944;2023-06-26T01:17:24;23.70;1.00
29353;DHT22;16344;50.364;8.944;2023-06-26T01:19:51;23.70;1.00
29353;DHT22;16344;50.364;8.944;2023-06-26T01:25:13;23.50;1.00
29353;DHT22;16344;50.364;8.944;2023-06-26T01:27:45;23.30;1.00
29353;DHT22;16344;50.364;8.944;2023-06-26T01:30:11;23.30;1.00
29353;DHT22;16344;50.364;8.944;2023-06-26T01:32:37;23.40;1.00
29353;DHT22;16344;50.364;8.944;2023-06-26T01:35:06;23.40;1.00
29353;DHT22;16344;50.364;8.944;2023-06-26T01:37:32;23.30;1.00
29353;DHT22;16344;50.364;8.944;2023-06-26T01:39:57;23.20;1.00
29353;DHT22;16344;50.364;8.944;2023-06-26T01:42:23;23.20;1.00
29353;DHT22;16344;50.364;8.944;2023-06-26T01:44:49;23.30;1.00
29353;DHT22;16344;50.364;8.944;2023-06-26T01:47:19;23.30;1.00
29353;DHT22;16344;50.364;8.944;2023-06-26T01:52:27;23.40;1.00
29353;DHT22;16344;50.364;8.944;2023-06-26T01:55:15;23.30;1.00
29353;DHT22;16344;50.364;8.944;2023-06-26T01:57:42;23.30;1.00
29353;DHT22;16344;50.364;8.944;2023-06-26T02:00:09;23.10;1.00
29353;DHT22;16344;50.364;8.944;2023-06-26T02:02:36;23.00;1.00
29353;DHT22;16344;50.364;8.944;2023-06-26T02:05:02;22.90;1.00
29353;DHT22;16344;50.364;8.944;2023-06-26T02:07:28;23.00;1.00
29353;DHT22;16344;50.364;8.944;2023-06-26T02:09:53;23.00;1.00
29353;DHT22;16344;50.364;8.944;2023-06-26T02:12:19;22.90;1.00
29353;DHT22;16344;50.364;8.944;2023-06-26T02:14:45;23.00;1.00
29353;DHT22;16344;50.364;8.944;2023-06-26T02:17:10;23.10;1.00
29353;DHT22;16344;50.364;8.944;2023-06-26T02:19:35;23.00;1.00
29353;DHT22;16344;50.364;8.944;2023-06-26T02:22:01;23.00;1.00
29353;DHT22;16344;50.364;8.944;2023-06-26T02:24:27;23.00;1.00
29353;DHT22;16344;50.364;8.944;2023-06-26T02:26:56;22.90;1.00
29353;DHT22;16344;50.364;8.944;2023-06-26T02:29:22;22.80;1.00
29353;DHT22;16344;50.364;8.944;2023-06-26T02:31:48;22.80;1.00
29353;DHT22;16344;50.364;8.944;2023-06-26T02:34:14;22.70;1.00
29353;DHT22;16344;50.364;8.944;2023-06-26T02:36:39;22.60;1.00
29353;DHT22;16344;50.364;8.944;2023-06-26T02:39:05;22.60;1.00
29353;DHT22;16344;50.364;8.944;2023-06-26T02:41:31;22.50;1.00
29353;DHT22;16344;50.364;8.944;2023-06-26T02:43:56;22.40;1.00
29353;DHT22;16344;50.364;8.944;2023-06-26T02:46:22;22.40;1.00
29353;DHT22;16344;50.364;8.944;2023-06-26T02:48:47;22.40;1.00
29353;DHT22;16344;50.364;8.944;2023-06-26T02:51:13;22.40;1.00
29353;DHT22;16344;50.364;8.944;2023-06-26T02:53:39;22.20;1.00
29353;DHT22;16344;50.364;8.944;2023-06-26T02:56:04;22.10;1.00
29353;DHT22;16344;50.364;8.944;2023-06-26T02:58:30;22.30;1.00
29353;DHT22;16344;50.364;8.944;2023-06-26T03:00:55;22.20;1.00
29353;DHT22;16344;50.364;8.944;2023-06-26T03:03:21;22.20;1.00
29353;DHT22;16344;50.364;8.944;2023-06-26T03:05:47;22.10;1.00
29353;DHT22;16344;50.364;8.944;2023-06-26T03:08:12;22.00;1.00
29353;DHT22;16344;50.364;8.944;2023-06-26T03:10:38;21.90;1.00
29353;DHT22;16344;50.364;8.944;2023-06-26T03:13:03;21.70;1.00
29353;DHT22;16344;50.364;8.944;2023-06-26T03:15:29;21.70;1.00
29353;DHT22;16344;50.364;8.944;2023-06-26T03:17:54;21.70;1.00
29353;DHT22;16344;50.364;8.944;2023-06-26T03:20:21;21.80;1.00
29353;DHT22;16344;50.364;8.944;2023-06-26T03:22:46;21.80;1.00
29353;DHT22;16344;50.364;8.944;2023-06-26T03:25:12;21.90;1.00
29353;DHT22;16344;50.364;8.944;2023-06-26T03:27:37;22.00;1.00
29353;DHT22;16344;50.364;8.944;2023-06-26T03:30:03;21.80;1.00
29353;DHT22;16344;50.364;8.944;2023-06-26T03:32:29;21.70;1.00
29353;DHT22;16344;50.364;8.944;2023-06-26T03:34:54;21.60;1.00
29353;DHT22;16344;50.364;8.944;2023-06-26T03:37:20;21.70;1.00
29353;DHT22;16344;50.364;8.944;2023-06-26T03:39:45;21.80;1.00
29353;DHT22;16344;50.364;8.944;2023-06-26T03:42:11;21.70;1.00
29353;DHT22;16344;50.364;8.944;2023-06-26T03:44:36;21.60;1.00
29353;DHT22;16344;50.364;8.944;2023-06-26T03:47:02;21.50;1.00
29353;DHT22;16344;50.364;8.944;2023-06-26T03:49:27;21.20;1.00
29353;DHT22;16344;50.364;8.944;2023-06-26T03:51:53;21.10;1.00
29353;DHT22;16344;50.364;8.944;2023-06-26T03:54:18;21.20;1.00
29353;DHT22;16344;50.364;8.944;2023-06-26T03:56:44;21.30;1.00
29353;DHT22;16344;50.364;8.944;2023-06-26T03:59:10;21.10;1.00
29353;DHT22;16344;50.364;8.944;2023-06-26T04:01:36;21.10;1.00
29353;DHT22;16344;50.364;8.944;2023-06-26T04:04:02;21.20;1.00
29353;DHT22;16344;50.364;8.944;2023-06-26T04:06:28;21.30;1.00
29353;DHT22;16344;50.364;8.944;2023-06-26T04:08:53;21.40;1.00
29353;DHT22;16344;50.364;8.944;2023-06-26T04:11:19;21.40;1.00
29353;DHT22;16344;50.364;8.944;2023-06-26T04:13:44;21.60;1.00
29353;DHT22;16344;50.364;8.944;2023-06-26T04:16:10;21.80;1.00
29353;DHT22;16344;50.364;8.944;2023-06-26T04:18:37;22.00;1.00
29353;DHT22;16344;50.364;8.944;2023-06-26T04:21:12;22.30;1.00
29353;DHT22;16344;50.364;8.944;2023-06-26T04:23:39;22.60;1.00
29353;DHT22;16344;50.364;8.944;2023-06-26T04:26:06;23.00;1.00
29353;DHT22;16344;50.364;8.944;2023-06-26T04:28:33;22.90;1.00
29353;DHT22;16344;50.364;8.944;2023-06-26T04:30:59;23.10;1.00
29353;DHT22;16344;50.364;8.944;2023-06-26T04:33:26;23.40;1.00
29353;DHT22;16344;50.364;8.944;2023-06-26T04:35:52;23.80;1.00
29353;DHT22;16344;50.364;8.944;2023-06-26T04:38:19;24.10;1.00
29353;DHT22;16344;50.364;8.944;2023-06-26T04:40:45;24.60;1.00
29353;DHT22;16344;50.364;8.944;2023-06-26T04:43:10;25.10;1.00
29353;DHT22;16344;50.364;8.944;2023-06-26T04:45:36;25.60;1.00
29353;DHT22;16344;50.364;8.944;2023-06-26T04:48:02;25.90;1.00
29353;DHT22;16344;50.364;8.944;2023-06-26T04:50:28;26.20;1.00
29353;DHT22;16344;50.364;8.944;2023-06-26T04:52:54;26.60;1.00
29353;DHT22;16344;50.364;8.944;2023-06-26T04:55:20;26.90;99.90
29353;DHT22;16344;50.364;8.944;2023-06-26T04:57:47;27.30;99.90
29353;DHT22;16344;50.364;8.944;2023-06-26T05:00:13;27.80;99.90
29353;DHT22;16344;50.364;8.944;2023-06-26T05:02:39;28.10;99.90
29353;DHT22;16344;50.364;8.944;2023-06-26T05:05:04;28.50;99.90
29353;DHT22;16344;50.364;8.944;2023-06-26T05:07:30;28.60;99.90
29353;DHT22;16344;50.364;8.944;2023-06-26T05:09:55;29.00;99.90
29353;DHT22;16344;50.364;8.944;2023-06-26T05:12:21;28.60;99.90
29353;DHT22;16344;50.364;8.944;2023-06-26T05:14:46;29.00;99.90
29353;DHT22;16344;50.364;8.944;2023-06-26T05:17:14;29.30;99.90
29353;DHT22;16344;50.364;8.944;2023-06-26T05:19:40;29.70;99.90
29353;DHT22;16344;50.364;8.944;2023-06-26T05:22:06;29.60;99.90
29353;DHT22;16344;50.364;8.944;2023-06-26T05:24:37;30.20;99.90
29353;DHT22;16344;50.364;8.944;2023-06-26T05:27:03;30.40;99.90
29353;DHT22;16344;50.364;8.944;2023-06-26T05:29:31;30.80;99.90
29353;DHT22;16344;50.364;8.944;2023-06-26T05:31:57;31.20;99.90
29353;DHT22;16344;50.364;8.944;2023-06-26T05:34:23;31.20;99.90
29353;DHT22;16344;50.364;8.944;2023-06-26T05:36:54;31.20;99.90
29353;DHT22;16344;50.364;8.944;2023-06-26T05:39:20;31.40;99.90
29353;DHT22;16344;50.364;8.944;2023-06-26T05:41:46;31.50;99.90
29353;DHT22;16344;50.364;8.944;2023-06-26T05:44:11;31.50;99.90
29353;DHT22;16344;50.364;8.944;2023-06-26T05:46:37;31.50;99.90
29353;DHT22;16344;50.364;8.944;2023-06-26T05:49:03;31.50;99.90
29353;DHT22;16344;50.364;8.944;2023-06-26T05:51:29;31.40;99.90
29353;DHT22;16344;50.364;8.944;2023-06-26T05:53:55;31.60;99.90
29353;DHT22;16344;50.364;8.944;2023-06-26T05:56:21;31.60;99.90
29353;DHT22;16344;50.364;8.944;2023-06-26T05:58:47;31.70;99.90
29353;DHT22;16344;50.364;8.944;2023-06-26T06:01:13;31.90;99.90
29353;DHT22;16344;50.364;8.944;2023-06-26T06:03:39;32.40;99.90
29353;DHT22;16344;50.364;8.944;2023-06-26T06:06:05;32.50;99.90
29353;DHT22;16344;50.364;8.944;2023-06-26T06:08:31;32.60;99.90
29353;DHT22;16344;50.364;8.944;2023-06-26T06:10:57;32.80;99.90
29353;DHT22;16344;50.364;8.944;2023-06-26T06:13:22;32.70;99.90
29353;DHT22;16344;50.364;8.944;2023-06-26T06:15:48;32.50;99.90
29353;DHT22;16344;50.364;8.944;2023-06-26T06:18:14;32.50;99.90
29353;DHT22;16344;50.364;8.944;2023-06-26T06:20:39;32.50;99.90
29353;DHT22;16344;50.364;8.944;2023-06-26T06:23:05;32.40;99.90
29353;DHT22;16344;50.364;8.944;2023-06-26T06:25:31;31.40;99.90
29353;DHT22;16344;50.364;8.944;2023-06-26T06:27:57;30.60;99.90
29353;DHT22;16344;50.364;8.944;2023-06-26T06:30:22;30.50;99.90
29353;DHT22;16344;50.364;8.944;2023-06-26T06:32:48;30.60;99.90
29353;DHT22;16344;50.364;8.944;2023-06-26T06:35:17;30.40;99.90
29353;DHT22;16344;50.364;8.944;2023-06-26T06:37:42;30.50;99.90
29353;DHT22;16344;50.364;8.944;2023-06-26T06:40:11;30.50;99.90
29353;DHT22;16344;50.364;8.944;2023-06-26T06:42:37;30.40;99.90
29353;DHT22;16344;50.364;8.944;2023-06-26T06:45:04;29.80;99.90
29353;DHT22;16344;50.364;8.944;2023-06-26T06:47:30;29.80;99.90
29353;DHT22;16344;50.364;8.944;2023-06-26T06:49:56;29.80;99.90
29353;DHT22;16344;50.364;8.944;2023-06-26T06:52:21;29.50;99.90
29353;DHT22;16344;50.364;8.944;2023-06-26T06:54:54;29.40;99.90
29353;DHT22;16344;50.364;8.944;2023-06-26T06:57:21;29.40;99.90
29353;DHT22;16344;50.364;8.944;2023-06-26T06:59:47;29.40;99.90
29353;DHT22;16344;50.364;8.944;2023-06-26T07:02:14;29.50;99.90
29353;DHT22;16344;50.364;8.944;2023-06-26T07:04:40;29.90;99.90
29353;DHT22;16344;50.364;8.944;2023-06-26T07:07:06;29.90;99.90
29353;DHT22;16344;50.364;8.944;2023-06-26T07:09:31;29.90;99.90
29353;DHT22;16344;50.364;8.944;2023-06-26T07:11:57;30.10;99.90
29353;DHT22;16344;50.364;8.944;2023-06-26T07:14:23;30.10;99.90
29353;DHT22;16344;50.364;8.944;2023-06-26T07:16:48;30.30;99.90
29353;DHT22;16344;50.364;8.944;2023-06-26T07:19:14;30.60;99.90
29353;DHT22;16344;50.364;8.944;2023-06-26T07:21:39;30.80;99.90
29353;DHT22;16344;50.364;8.944;2023-06-26T07:24:06;30.70;99.90
29353;DHT22;16344;50.364;8.944;2023-06-26T07:26:32;30.90;99.90
29353;DHT22;16344;50.364;8.944;2023-06-26T07:28:58;31.00;99.90
29353;DHT22;16344;50.364;8.944;2023-06-26T07:31:23;31.10;99.90
29353;DHT22;16344;50.364;8.944;2023-06-26T07:33:49;31.20;99.90
29353;DHT22;16344;50.364;8.944;2023-06-26T07:36:14;31.20;99.90
29353;DHT22;16344;50.364;8.944;2023-06-26T07:38:40;30.80;99.90
29353;DHT22;16344;50.364;8.944;2023-06-26T07:41:06;30.70;99.90
29353;DHT22;16344;50.364;8.944;2023-06-26T07:43:31;30.80;99.90
29353;DHT22;16344;50.364;8.944;2023-06-26T07:45:57;31.00;99.90
29353;DHT22;16344;50.364;8.944;2023-06-26T07:48:27;31.10;99.90
29353;DHT22;16344;50.364;8.944;2023-06-26T07:50:52;31.00;99.90
29353;DHT22;16344;50.364;8.944;2023-06-26T07:53:19;30.90;99.90
29353;DHT22;16344;50.364;8.944;2023-06-26T07:55:44;30.60;99.90
29353;DHT22;16344;50.364;8.944;2023-06-26T07:58:10;30.80;99.90
29353;DHT22;16344;50.364;8.944;2023-06-26T08:00:36;30.70;99.90
29353;DHT22;16344;50.364;8.944;2023-06-26T08:03:01;30.80;99.90
29353;DHT22;16344;50.364;8.944;2023-06-26T08:05:27;31.20;99.90
29353;DHT22;16344;50.364;8.944;2023-06-26T08:07:53;31.30;99.90
29353;DHT22;16344;50.364;8.944;2023-06-26T08:10:18;30.90;99.90
29353;DHT22;16344;50.364;8.944;2023-06-26T08:12:44;30.80;99.90
29353;DHT22;16344;50.364;8.944;2023-06-26T08:15:10;31.00;99.90
29353;DHT22;16344;50.364;8.944;2023-06-26T08:17:37;30.80;99.90
29353;DHT22;16344;50.364;8.944;2023-06-26T08:20:03;30.90;99.90
29353;DHT22;16344;50.364;8.944;2023-06-26T08:22:29;30.90;99.90
29353;DHT22;16344;50.364;8.944;2023-06-26T08:24:55;30.70;99.90
29353;DHT22;16344;50.364;8.944;2023-06-26T08:27:20;30.60;99.90
29353;DHT22;16344;50.364;8.944;2023-06-26T08:29:46;30.80;99.90
29353;DHT22;16344;50.364;8.944;2023-06-26T08:32:11;31.00;99.90
29353;DHT22;16344;50.364;8.944;2023-06-26T08:34:37;31.10;99.90
29353;DHT22;16344;50.364;8.944;2023-06-26T08:37:03;31.30;99.90
29353;DHT22;16344;50.364;8.944;2023-06-26T08:39:28;31.30;99.90
29353;DHT22;16344;50.364;8.944;2023-06-26T08:41:54;31.20;99.90
29353;DHT22;16344;50.364;8.944;2023-06-26T08:44:20;31.10;99.90
29353;DHT22;16344;50.364;8.944;2023-06-26T08:46:51;31.20;99.90
29353;DHT22;16344;50.364;8.944;2023-06-26T08:49:40;31.20;99.90
29353;DHT22;16344;50.364;8.944;2023-06-26T08:55:23;31.70;99.90
29353;DHT22;16344;50.364;8.944;2023-06-26T08:57:51;32.10;99.90
29353;DHT22;16344;50.364;8.944;2023-06-26T09:00:18;31.90;99.90
29353;DHT22;16344;50.364;8.944;2023-06-26T09:02:45;32.00;99.90
29353;DHT22;16344;50.364;8.944;2023-06-26T09:05:11;31.80;99.90
29353;DHT22;16344;50.364;8.944;2023-06-26T09:07:37;31.80;99.90
29353;DHT22;16344;50.364;8.944;2023-06-26T09:10:03;31.90;99.90
29353;DHT22;16344;50.364;8.944;2023-06-26T09:12:28;32.20;99.90
29353;DHT22;16344;50.364;8.944;2023-06-26T09:14:57;32.30;99.90
29353;DHT22;16344;50.364;8.944;2023-06-26T09:17:29;32.50;99.90
29353;DHT22;16344;50.364;8.944;2023-06-26T09:19:55;32.80;99.90
29353;DHT22;16344;50.364;8.944;2023-06-26T09:22:21;32.90;99.90
29353;DHT22;16344;50.364;8.944;2023-06-26T09:24:48;32.80;99.90
29353;DHT22;16344;50.364;8.944;2023-06-26T09:27:13;32.60;99.90
29353;DHT22;16344;50.364;8.944;2023-06-26T09:29:39;32.60;99.90
29353;DHT22;16344;50.364;8.944;2023-06-26T09:32:04;32.50;99.90
29353;DHT22;16344;50.364;8.944;2023-06-26T09:34:31;32.20;99.90
29353;DHT22;16344;50.364;8.944;2023-06-26T09:36:57;32.10;99.90
29353;DHT22;16344;50.364;8.944;2023-06-26T09:39:23;31.90;99.90
29353;DHT22;16344;50.364;8.944;2023-06-26T09:41:49;31.70;99.90
29353;DHT22;16344;50.364;8.944;2023-06-26T09:44:15;31.80;99.90
29353;DHT22;16344;50.364;8.944;2023-06-26T09:46:44;31.50;99.90
29353;DHT22;16344;50.364;8.944;2023-06-26T09:49:11;31.30;99.90
29353;DHT22;16344;50.364;8.944;2023-06-26T09:51:37;31.10;99.90
29353;DHT22;16344;50.364;8.944;2023-06-26T09:54:04;30.90;99.90
29353;DHT22;16344;50.364;8.944;2023-06-26T09:56:31;31.00;99.90
29353;DHT22;16344;50.364;8.944;2023-06-26T09:58:59;30.90;99.90
29353;DHT22;16344;50.364;8.944;2023-06-26T10:01:25;30.90;99.90
29353;DHT22;16344;50.364;8.944;2023-06-26T10:03:51;31.20;99.90
29353;DHT22;16344;50.364;8.944;2023-06-26T10:06:19;31.20;99.90
29353;DHT22;16344;50.364;8.944;2023-06-26T10:08:48;31.10;99.90
29353;DHT22;16344;50.364;8.944;2023-06-26T10:11:16;31.00;99.90
29353;DHT22;16344;50.364;8.944;2023-06-26T10:13:45;30.90;99.90
29353;DHT22;16344;50.364;8.944;2023-06-26T10:16:18;31.00;99.90
29353;DHT22;16344;50.364;8.944;2023-06-26T10:18:46;31.00;99.90
29353;DHT22;16344;50.364;8.944;2023-06-26T10:21:14;30.90;99.90
29353;DHT22;16344;50.364;8.944;2023-06-26T10:23:41;31.00;99.90
29353;DHT22;16344;50.364;8.944;2023-06-26T10:26:08;30.90;99.90
29353;DHT22;16344;50.364;8.944;2023-06-26T10:28:35;30.80;99.90
29353;DHT22;16344;50.364;8.944;2023-06-26T10:31:03;30.60;99.90
29353;DHT22;16344;50.364;8.944;2023-06-26T10:33:30;30.60;99.90
29353;DHT22;16344;50.364;8.944;2023-06-26T10:36:19;30.70;99.90
29353;DHT22;16344;50.364;8.944;2023-06-26T10:38:55;31.00;99.90
29353;DHT22;16344;50.364;8.944;2023-06-26T10:41:22;31.00;99.90
29353;DHT22;16344;50.364;8.944;2023-06-26T10:46:25;30.70;99.90
29353;DHT22;16344;50.364;8.944;2023-06-26T10:49:00;30.90;99.90
29353;DHT22;16344;50.364;8.944;2023-06-26T10:51:29;31.20;99.90
29353;DHT22;16344;50.364;8.944;2023-06-26T10:53:58;31.50;99.90
29353;DHT22;16344;50.364;8.944;2023-06-26T10:56:45;31.60;99.90
29353;DHT22;16344;50.364;8.944;2023-06-26T10:59:23;31.70;99.90
29353;DHT22;16344;50.364;8.944;2023-06-26T11:01:57;31.70;99.90
29353;DHT22;16344;50.364;8.944;2023-06-26T11:04:45;31.90;99.90
29353;DHT22;16344;50.364;8.944;2023-06-26T11:10:02;31.60;99.90
29353;DHT22;16344;50.364;8.944;2023-06-26T11:12:40;31.40;99.90
29353;DHT22;16344;50.364;8.944;2023-06-26T11:15:11;31.40;99.90
29353;DHT22;16344;50.364;8.944;2023-06-26T11:17:38;31.20;99.90
29353;DHT22;16344;50.364;8.944;2023-06-26T11:20:08;31.50;99.90
29353;DHT22;16344;50.364;8.944;2023-06-26T11:22:36;31.70;99.90
29353;DHT22;16344;50.364;8.944;2023-06-26T11:25:03;31.70;99.90
29353;DHT22;16344;50.364;8.944;2023-06-26T11:27:39;31.80;99.90
29353;DHT22;16344;50.364;8.944;2023-06-26T11:30:06;31.90;99.90
29353;DHT22;16344;50.364;8.944;2023-06-26T11:32:32;32.00;99.90
29353;DHT22;16344;50.364;8.944;2023-06-26T11:35:00;32.10;99.90
29353;DHT22;16344;50.364;8.944;2023-06-26T11:37:26;32.10;99.90
29353;DHT22;16344;50.364;8.944;2023-06-26T11:39:52;31.90;99.90
29353;DHT22;16344;50.364;8.944;2023-06-26T11:42:19;31.70;99.90
29353;DHT22;16344;50.364;8.944;2023-06-26T11:44:45;31.80;99.90
29353;DHT22;16344;50.364;8.944;2023-06-26T11:47:18;31.90;99.90
29353;DHT22;16344;50.364;8.944;2023-06-26T11:49:44;31.90;99.90
29353;DHT22;16344;50.364;8.944;2023-06-26T11:52:10;32.00;99.90
29353;DHT22;16344;50.364;8.944;2023-06-26T11:54:36;32.10;99.90
29353;DHT22;16344;50.364;8.944;2023-06-26T11:57:03;32.10;99.90
29353;DHT22;16344;50.364;8.944;2023-06-26T11:59:37;31.90;99.90
29353;DHT22;16344;50.364;8.944;2023-06-26T12:02:13;31.70;99.90
29353;DHT22;16344;50.364;8.944;2023-06-26T12:04:41;31.80;99.90
29353;DHT22;16344;50.364;8.944;2023-06-26T12:07:08;31.80;99.90
29353;DHT22;16344;50.364;8.944;2023-06-26T12:09:43;31.60;99.90
29353;DHT22;16344;50.364;8.944;2023-06-26T12:12:10;31.40;99.90
29353;DHT22;16344;50.364;8.944;2023-06-26T12:14:36;31.40;99.90
29353;DHT22;16344;50.364;8.944;2023-06-26T12:17:05;31.60;99.90
29353;DHT22;16344;50.364;8.944;2023-06-26T12:19:31;31.70;99.90
29353;DHT22;16344;50.364;8.944;2023-06-26T12:21:57;31.70;99.90
29353;DHT22;16344;50.364;8.944;2023-06-26T12:24:23;31.60;99.90
29353;DHT22;16344;50.364;8.944;2023-06-26T12:26:51;31.80;99.90
29353;DHT22;16344;50.364;8.944;2023-06-26T12:29:19;31.80;99.90
29353;DHT22;16344;50.364;8.944;2023-06-26T12:31:52;31.60;99.90
29353;DHT22;16344;50.364;8.944;2023-06-26T12:34:26;31.40;99.90
29353;DHT22;16344;50.364;8.944;2023-06-26T12:36:51;31.30;99.90
29353;DHT22;16344;50.364;8.944;2023-06-26T12:39:19;31.50;99.90
29353;DHT22;16344;50.364;8.944;2023-06-26T12:41:49;31.40;99.90
29353;DHT22;16344;50.364;8.944;2023-06-26T12:44:18;31.50;99.90
29353;DHT22;16344;50.364;8.944;2023-06-26T12:46:46;31.40;99.90
29353;DHT22;16344;50.364;8.944;2023-06-26T12:49:12;31.40;99.90
29353;DHT22;16344;50.364;8.944;2023-06-26T12:51:38;31.50;99.90
29353;DHT22;16344;50.364;8.944;2023-06-26T12:54:05;31.30;99.90
29353;DHT22;16344;50.364;8.944;2023-06-26T12:56:31;31.00;99.90
29353;DHT22;16344;50.364;8.944;2023-06-26T12:58:56;31.00;99.90
29353;DHT22;16344;50.364;8.944;2023-06-26T13:01:22;31.10;99.90
29353;DHT22;16344;50.364;8.944;2023-06-26T13:03:50;31.00;99.90
29353;DHT22;16344;50.364;8.944;2023-06-26T13:06:17;31.00;99.90
29353;DHT22;16344;50.364;8.944;2023-06-26T13:08:42;31.00;99.90
29353;DHT22;16344;50.364;8.944;2023-06-26T13:11:09;31.10;99.90
29353;DHT22;16344;50.364;8.944;2023-06-26T13:13:34;31.00;99.90
29353;DHT22;16344;50.364;8.944;2023-06-26T13:16:00;30.80;99.90
29353;DHT22;16344;50.364;8.944;2023-06-26T13:18:26;30.70;99.90
29353;DHT22;16344;50.364;8.944;2023-06-26T13:20:51;30.60;99.90
29353;DHT22;16344;50.364;8.944;2023-06-26T13:23:17;30.60;99.90
29353;DHT22;16344;50.364;8.944;2023-06-26T13:25:43;30.30;99.90
29353;DHT22;16344;50.364;8.944;2023-06-26T13:28:09;30.10;99.90
29353;DHT22;16344;50.364;8.944;2023-06-26T13:30:35;29.80;99.90
29353;DHT22;16344;50.364;8.944;2023-06-26T13:33:01;29.70;99.90
29353;DHT22;16344;50.364;8.944;2023-06-26T13:35:26;29.70;99.90
29353;DHT22;16344;50.364;8.944;2023-06-26T13:37:52;29.80;99.90
29353;DHT22;16344;50.364;8.944;2023-06-26T13:40:17;29.80;99.90
29353;DHT22;16344;50.364;8.944;2023-06-26T13:42:43;29.60;99.90
29353;DHT22;16344;50.364;8.944;2023-06-26T13:45:09;29.60;99.90
29353;DHT22;16344;50.364;8.944;2023-06-26T13:47:35;29.60;99.90
29353;DHT22;16344;50.364;8.944;2023-06-26T13:50:03;29.30;99.90
29353;DHT22;16344;50.364;8.944;2023-06-26T13:52:29;29.40;99.90
29353;DHT22;16344;50.364;8.944;2023-06-26T13:54:55;29.50;99.90
29353;DHT22;16344;50.364;8.944;2023-06-26T13:57:20;29.70;99.90
29353;DHT22;16344;50.364;8.944;2023-06-26T13:59:47;30.00;99.90
29353;DHT22;16344;50.364;8.944;2023-06-26T14:02:13;30.20;99.90
29353;DHT22;16344;50.364;8.944;2023-06-26T14:04:39;30.20;99.90
29353;DHT22;16344;50.364;8.944;2023-06-26T14:07:05;29.90;99.90
29353;DHT22;16344;50.364;8.944;2023-06-26T14:09:31;29.80;99.90
29353;DHT22;16344;50.364;8.944;2023-06-26T14:11:57;29.90;99.90
29353;DHT22;16344;50.364;8.944;2023-06-26T14:14:23;30.00;99.90
29353;DHT22;16344;50.364;8.944;2023-06-26T14:16:48;29.90;99.90
29353;DHT22;16344;50.364;8.944;2023-06-26T14:19:14;29.70;99.90
29353;DHT22;16344;50.364;8.944;2023-06-26T14:21:41;29.60;99.90
29353;DHT22;16344;50.364;8.944;2023-06-26T14:24:06;29.40;99.90
29353;DHT22;16344;50.364;8.944;2023-06-26T14:26:32;29.20;99.90
29353;DHT22;16344;50.364;8.944;2023-06-26T14:28:59;29.10;99.90
29353;DHT22;16344;50.364;8.944;2023-06-26T14:31:25;29.00;99.90
29353;DHT22;16344;50.364;8.944;2023-06-26T14:33:50;29.20;99.90
29353;DHT22;16344;50.364;8.944;2023-06-26T14:36:16;29.40;99.90
29353;DHT22;16344;50.364;8.944;2023-06-26T14:38:41;29.40;99.90
29353;DHT22;16344;50.364;8.944;2023-06-26T14:41:07;29.70;99.90
29353;DHT22;16344;50.364;8.944;2023-06-26T14:43:32;29.60;99.90
29353;DHT22;16344;50.364;8.944;2023-06-26T14:45:58;29.50;99.90
29353;DHT22;16344;50.364;8.944;2023-06-26T14:48:23;29.40;99.90
29353;DHT22;16344;50.364;8.944;2023-06-26T14:50:49;29.50;99.90
29353;DHT22;16344;50.364;8.944;2023-06-26T14:53:14;29.40;99.90
29353;DHT22;16344;50.364;8.944;2023-06-26T14:55:40;29.40;99.90
29353;DHT22;16344;50.364;8.944;2023-06-26T14:58:05;29.30;99.90
29353;DHT22;16344;50.364;8.944;2023-06-26T15:00:31;29.10;99.90
29353;DHT22;16344;50.364;8.944;2023-06-26T15:02:56;29.00;99.90
29353;DHT22;16344;50.364;8.944;2023-06-26T15:05:23;28.90;99.90
29353;DHT22;16344;50.364;8.944;2023-06-26T15:07:49;28.90;99.90
29353;DHT22;16344;50.364;8.944;2023-06-26T15:10:15;29.00;99.90
29353;DHT22;16344;50.364;8.944;2023-06-26T15:12:41;28.90;99.90
29353;DHT22;16344;50.364;8.944;2023-06-26T15:15:07;28.70;99.90
29353;DHT22;16344;50.364;8.944;2023-06-26T15:17:33;28.70;99.90
29353;DHT22;16344;50.364;8.944;2023-06-26T15:19:59;28.60;99.90
29353;DHT22;16344;50.364;8.944;2023-06-26T15:22:26;28.50;99.90
29353;DHT22;16344;50.364;8.944;2023-06-26T15:24:52;28.40;99.90
29353;DHT22;16344;50.364;8.944;2023-06-26T15:27:17;28.40;99.90
29353;DHT22;16344;50.364;8.944;2023-06-26T15:29:43;28.40;99.90
29353;DHT22;16344;50.364;8.944;2023-06-26T15:32:09;28.40;99.90
29353;DHT22;16344;50.364;8.944;2023-06-26T15:34:34;28.30;99.90
29353;DHT22;16344;50.364;8.944;2023-06-26T15:37:00;28.40;99.90
29353;DHT22;16344;50.364;8.944;2023-06-26T15:39:25;28.40;99.90
29353;DHT22;16344;50.364;8.944;2023-06-26T15:41:51;28.40;99.90
29353;DHT22;16344;50.364;8.944;2023-06-26T15:44:17;28.30;99.90
29353;DHT22;16344;50.364;8.944;2023-06-26T15:46:43;28.20;99.90